sensor_id;sensor_type;location;lat;lon;timestamp;pressure;altitude;pressure_sealevel;temperature;humidity
69306;BME280;56427;51.580;4.656;2023-07-16T00:02:25;100830.47;;;16.72;100.00
69306;BME280;56427;51.580;4.656;2023-07-16T00:04:50;100829.81;;;16.70;100.00
69306;BME280;56427;51.580;4.656;2023-07-16T00:07:15;100829.47;;;16.82;100.00
69306;BME280;56427;51.580;4.656;2023-07-16T00:09:42;100834.06;;;16.80;100.00
69306;BME280;56427;51.580;4.656;2023-07-16T00:12:07;100840.13;;;16.80;100.00
69306;BME280;56427;51.580;4.656;2023-07-16T00:14:33;100829.00;;;16.78;100.00
69306;BME280;56427;51.580;4.656;2023-07-16T00:16:59;100835.38;;;16.75;100.00
69306;BME280;56427;51.580;4.656;2023-07-16T00:19:24;100842.41;;;16.91;100.00
69306;BME280;56427;51.580;4.656;2023-07-16T00:21:49;100841.09;;;16.79;100.00
69306;BME280;56427;51.580;4.656;2023-07-16T00:24:15;100834.53;;;16.83;100.00
69306;BME280;56427;51.580;4.656;2023-07-16T00:26:40;100841.94;;;16.88;100.00
69306;BME280;56427;51.580;4.656;2023-07-16T00:29:05;100837.66;;;16.79;100.00
69306;BME280;56427;51.580;4.656;2023-07-16T00:31:31;100844.25;;;16.66;100.00
69306;BME280;56427;51.580;4.656;2023-07-16T00:33:56;100845.06;;;16.67;100.00
69306;BME280;56427;51.580;4.656;2023-07-16T00:36:22;100841.31;;;16.69;100.00
69306;BME280;56427;51.580;4.656;2023-07-16T00:38:47;100856.84;;;16.63;100.00
69306;BME280;56427;51.580;4.656;2023-07-16T00:41:13;100851.13;;;16.59;100.00
69306;BME280;56427;51.580;4.656;2023-07-16T00:43:39;100851.47;;;16.56;100.00
69306;BME280;56427;51.580;4.656;2023-07-16T00:46:04;100846.19;;;16.72;100.00
69306;BME280;56427;51.580;4.656;2023-07-16T00:48:30;100852.09;;;16.74;100.00
69306;BME280;56427;51.580;4.656;2023-07-16T00:50:55;100851.59;;;16.71;100.00
69306;BME280;56427;51.580;4.656;2023-07-16T00:53:21;100856.53;;;16.66;100.00
69306;BME280;56427;51.580;4.656;2023-07-16T00:55:47;100852.13;;;16.58;100.00
69306;BME280;56427;51.580;4.656;2023-07-16T00:58:12;100853.75;;;16.67;100.00
69306;BME280;56427;51.580;4.656;2023-07-16T01:00:39;100843.09;;;16.69;100.00
69306;BME280;56427;51.580;4.656;2023-07-16T01:03:07;100840.47;;;16.69;100.00
69306;BME280;56427;51.580;4.656;2023-07-16T01:06:00;100853.22;;;16.80;100.00
69306;BME280;56427;51.580;4.656;2023-07-16T01:08:41;100847.84;;;16.65;100.00
69306;BME280;56427;51.580;4.656;2023-07-16T01:11:10;100854.56;;;16.76;100.00
69306;BME280;56427;51.580;4.656;2023-07-16T01:13:36;100854.75;;;16.66;100.00
69306;BME280;56427;51.580;4.656;2023-07-16T01:16:01;100848.66;;;16.66;100.00
69306;BME280;56427;51.580;4.656;2023-07-16T01:18:27;100849.81;;;16.71;100.00
69306;BME280;56427;51.580;4.656;2023-07-16T01:20:52;100853.44;;;16.62;100.00
69306;BME280;56427;51.580;4.656;2023-07-16T01:29:33;100853.25;;;16.64;100.00
69306;BME280;56427;51.580;4.656;2023-07-16T01:32:03;100859.16;;;16.66;100.00
69306;BME280;56427;51.580;4.656;2023-07-16T01:34:32;100858.16;;;16.67;100.00
69306;BME280;56427;51.580;4.656;2023-07-16T01:37:02;100859.16;;;16.66;100.00
69306;BME280;56427;51.580;4.656;2023-07-16T01:39:28;100855.06;;;16.63;100.00
69306;BME280;56427;51.580;4.656;2023-07-16T01:41:53;100853.25;;;16.72;100.00
69306;BME280;56427;51.580;4.656;2023-07-16T01:44:19;100854.91;;;16.65;100.00
69306;BME280;56427;51.580;4.656;2023-07-16T01:46:59;100840.97;;;16.64;100.00
69306;BME280;56427;51.580;4.656;2023-07-16T01:49:28;100858.78;;;16.77;100.00
69306;BME280;56427;51.580;4.656;2023-07-16T01:51:54;100857.00;;;16.78;100.00
69306;BME280;56427;51.580;4.656;2023-07-16T01:54:20;100848.81;;;16.72;100.00
69306;BME280;56427;51.580;4.656;2023-07-16T01:56:45;100848.03;;;16.64;100.00
69306;BME280;56427;51.580;4.656;2023-07-16T01:59:10;100861.13;;;16.64;100.00
69306;BME280;56427;51.580;4.656;2023-07-16T02:01:36;100866.66;;;16.77;100.00
69306;BME280;56427;51.580;4.656;2023-07-16T02:04:01;100864.34;;;16.90;100.00
69306;BME280;56427;51.580;4.656;2023-07-16T02:06:26;100853.88;;;16.82;100.00
69306;BME280;56427;51.580;4.656;2023-07-16T02:08:52;100858.16;;;16.75;100.00
69306;BME280;56427;51.580;4.656;2023-07-16T02:11:17;100858.16;;;16.67;100.00
69306;BME280;56427;51.580;4.656;2023-07-16T02:13:42;100861.91;;;16.72;100.00
69306;BME280;56427;51.580;4.656;2023-07-16T02:16:08;100872.09;;;16.67;100.00
69306;BME280;56427;51.580;4.656;2023-07-16T02:18:33;100863.56;;;16.65;100.00
69306;BME280;56427;51.580;4.656;2023-07-16T02:20:58;100876.50;;;16.67;100.00
69306;BME280;56427;51.580;4.656;2023-07-16T02:23:24;100869.66;;;16.58;100.00
69306;BME280;56427;51.580;4.656;2023-07-16T02:25:49;100873.59;;;16.53;100.00
69306;BME280;56427;51.580;4.656;2023-07-16T02:28:14;100872.78;;;16.61;100.00
69306;BME280;56427;51.580;4.656;2023-07-16T02:30:40;100872.78;;;16.53;100.00
69306;BME280;56427;51.580;4.656;2023-07-16T02:33:06;100874.09;;;16.49;100.00
69306;BME280;56427;51.580;4.656;2023-07-16T02:35:31;100879.34;;;16.41;100.00
69306;BME280;56427;51.580;4.656;2023-07-16T02:37:57;100881.28;;;16.47;100.00
69306;BME280;56427;51.580;4.656;2023-07-16T02:40:22;100877.03;;;16.37;100.00
69306;BME280;56427;51.580;4.656;2023-07-16T02:42:47;100877.19;;;16.36;100.00
69306;BME280;56427;51.580;4.656;2023-07-16T02:45:13;100872.28;;;16.33;100.00
69306;BME280;56427;51.580;4.656;2023-07-16T02:47:38;100874.09;;;16.32;100.00
69306;BME280;56427;51.580;4.656;2023-07-16T02:50:04;100875.59;;;16.35;100.00
69306;BME280;56427;51.580;4.656;2023-07-16T02:52:29;100873.44;;;16.47;100.00
69306;BME280;56427;51.580;4.656;2023-07-16T02:54:55;100880.28;;;16.48;100.00
69306;BME280;56427;51.580;4.656;2023-07-16T02:57:21;100884.06;;;16.62;100.00
69306;BME280;56427;51.580;4.656;2023-07-16T02:59:46;100891.09;;;16.69;100.00
69306;BME280;56427;51.580;4.656;2023-07-16T03:02:12;100883.41;;;16.68;100.00
69306;BME280;56427;51.580;4.656;2023-07-16T03:04:37;100876.69;;;16.65;100.00
69306;BME280;56427;51.580;4.656;2023-07-16T03:07:03;100876.84;;;16.72;100.00
69306;BME280;56427;51.580;4.656;2023-07-16T03:09:28;100874.06;;;16.57;100.00
69306;BME280;56427;51.580;4.656;2023-07-16T03:11:54;100881.28;;;16.63;100.00
69306;BME280;56427;51.580;4.656;2023-07-16T03:14:19;100880.28;;;16.48;100.00
69306;BME280;56427;51.580;4.656;2023-07-16T03:16:44;100891.94;;;16.53;100.00
69306;BME280;56427;51.580;4.656;2023-07-16T03:19:10;100885.22;;;16.43;100.00
69306;BME280;56427;51.580;4.656;2023-07-16T03:21:35;100897.66;;;16.49;100.00
69306;BME280;56427;51.580;4.656;2023-07-16T03:24:00;100898.78;;;16.38;100.00
69306;BME280;56427;51.580;4.656;2023-07-16T03:26:26;100898.13;;;16.52;100.00
69306;BME280;56427;51.580;4.656;2023-07-16T03:28:51;100902.41;;;16.53;100.00
69306;BME280;56427;51.580;4.656;2023-07-16T03:31:16;100915.50;;;16.45;100.00
69306;BME280;56427;51.580;4.656;2023-07-16T03:33:42;100912.56;;;16.48;100.00
69306;BME280;56427;51.580;4.656;2023-07-16T03:36:07;100909.28;;;16.46;100.00
69306;BME280;56427;51.580;4.656;2023-07-16T03:38:33;100910.75;;;16.49;100.00
69306;BME280;56427;51.580;4.656;2023-07-16T03:40:59;100916.16;;;16.55;100.00
69306;BME280;56427;51.580;4.656;2023-07-16T03:43:25;100916.47;;;16.61;100.00
69306;BME280;56427;51.580;4.656;2023-07-16T03:45:50;100916.00;;;16.57;100.00
69306;BME280;56427;51.580;4.656;2023-07-16T03:48:15;100914.69;;;16.61;100.00
69306;BME280;56427;51.580;4.656;2023-07-16T03:50:41;100915.03;;;16.58;100.00
69306;BME280;56427;51.580;4.656;2023-07-16T03:53:07;100921.41;;;16.55;100.00
69306;BME280;56427;51.580;4.656;2023-07-16T03:55:33;100927.13;;;16.59;100.00
69306;BME280;56427;51.580;4.656;2023-07-16T03:58:18;100938.59;;;16.58;100.00
69306;BME280;56427;51.580;4.656;2023-07-16T04:00:44;100931.88;;;16.47;100.00
69306;BME280;56427;51.580;4.656;2023-07-16T04:03:09;100935.47;;;16.46;100.00
69306;BME280;56427;51.580;4.656;2023-07-16T04:05:35;100937.44;;;16.44;100.00
69306;BME280;56427;51.580;4.656;2023-07-16T04:08:00;100934.16;;;16.42;100.00
69306;BME280;56427;51.580;4.656;2023-07-16T04:10:26;100934.34;;;16.41;100.00
69306;BME280;56427;51.580;4.656;2023-07-16T04:12:51;100936.78;;;16.42;100.00
69306;BME280;56427;51.580;4.656;2023-07-16T04:15:16;100945.94;;;16.46;100.00
69306;BME280;56427;51.580;4.656;2023-07-16T04:17:42;100940.22;;;16.51;100.00
69306;BME280;56427;51.580;4.656;2023-07-16T04:20:07;100948.22;;;16.74;100.00
69306;BME280;56427;51.580;4.656;2023-07-16T04:22:34;100947.56;;;16.80;100.00
69306;BME280;56427;51.580;4.656;2023-07-16T04:25:00;100952.66;;;16.98;100.00
69306;BME280;56427;51.580;4.656;2023-07-16T04:27:25;100946.59;;;16.98;100.00
69306;BME280;56427;51.580;4.656;2023-07-16T04:29:51;100958.88;;;17.05;100.00
69306;BME280;56427;51.580;4.656;2023-07-16T04:32:16;100957.72;;;16.83;100.00
69306;BME280;56427;51.580;4.656;2023-07-16T04:34:41;100955.59;;;16.79;100.00
69306;BME280;56427;51.580;4.656;2023-07-16T04:37:07;100958.22;;;16.70;100.00
69306;BME280;56427;51.580;4.656;2023-07-16T04:39:32;100955.63;;;16.95;100.00
69306;BME280;56427;51.580;4.656;2023-07-16T04:41:58;100957.88;;;17.06;100.00
69306;BME280;56427;51.580;4.656;2023-07-16T04:44:23;100963.59;;;17.10;100.00
69306;BME280;56427;51.580;4.656;2023-07-16T04:46:48;100958.97;;;17.28;100.00
69306;BME280;56427;51.580;4.656;2023-07-16T04:49:14;100964.81;;;17.55;100.00
69306;BME280;56427;51.580;4.656;2023-07-16T04:51:39;100963.06;;;17.71;100.00
69306;BME280;56427;51.580;4.656;2023-07-16T04:54:04;100965.78;;;17.54;100.00
69306;BME280;56427;51.580;4.656;2023-07-16T04:56:30;100975.25;;;17.63;100.00
69306;BME280;56427;51.580;4.656;2023-07-16T04:58:55;100978.28;;;17.44;100.00
69306;BME280;56427;51.580;4.656;2023-07-16T05:01:20;100979.50;;;17.64;100.00
69306;BME280;56427;51.580;4.656;2023-07-16T05:03:46;100982.72;;;17.83;100.00
69306;BME280;56427;51.580;4.656;2023-07-16T05:06:11;100993.38;;;17.90;100.00
69306;BME280;56427;51.580;4.656;2023-07-16T05:08:36;100981.34;;;18.27;100.00
69306;BME280;56427;51.580;4.656;2023-07-16T05:11:02;100992.19;;;18.24;100.00
69306;BME280;56427;51.580;4.656;2023-07-16T05:13:27;100992.34;;;17.99;100.00
69306;BME280;56427;51.580;4.656;2023-07-16T05:15:53;101003.31;;;18.34;100.00
69306;BME280;56427;51.580;4.656;2023-07-16T05:18:18;100990.69;;;18.29;100.00
69306;BME280;56427;51.580;4.656;2023-07-16T05:20:47;100986.38;;;18.98;100.00
69306;BME280;56427;51.580;4.656;2023-07-16T05:23:13;100980.22;;;18.67;100.00
69306;BME280;56427;51.580;4.656;2023-07-16T05:25:38;100982.84;;;18.90;100.00
69306;BME280;56427;51.580;4.656;2023-07-16T05:28:04;100991.53;;;19.06;100.00
69306;BME280;56427;51.580;4.656;2023-07-16T05:30:29;100999.13;;;18.86;100.00
69306;BME280;56427;51.580;4.656;2023-07-16T05:32:54;101004.94;;;18.96;100.00
69306;BME280;56427;51.580;4.656;2023-07-16T05:35:20;101006.94;;;18.94;100.00
69306;BME280;56427;51.580;4.656;2023-07-16T05:37:45;100997.75;;;19.43;100.00
69306;BME280;56427;51.580;4.656;2023-07-16T05:40:11;100987.66;;;19.46;100.00
69306;BME280;56427;51.580;4.656;2023-07-16T05:42:36;101004.91;;;19.34;100.00
69306;BME280;56427;51.580;4.656;2023-07-16T05:45:03;101017.56;;;19.01;100.00
69306;BME280;56427;51.580;4.656;2023-07-16T05:47:28;101017.97;;;19.87;100.00
69306;BME280;56427;51.580;4.656;2023-07-16T05:49:54;101011.09;;;19.56;100.00
69306;BME280;56427;51.580;4.656;2023-07-16T05:52:19;101012.44;;;19.37;100.00
69306;BME280;56427;51.580;4.656;2023-07-16T05:54:44;101032.00;;;20.67;95.89
69306;BME280;56427;51.580;4.656;2023-07-16T05:57:10;101038.38;;;20.15;95.85
69306;BME280;56427;51.580;4.656;2023-07-16T05:59:35;101025.34;;;18.94;100.00
69306;BME280;56427;51.580;4.656;2023-07-16T06:02:05;101024.13;;;18.82;100.00
69306;BME280;56427;51.580;4.656;2023-07-16T06:04:31;101025.88;;;18.43;100.00
69306;BME280;56427;51.580;4.656;2023-07-16T06:06:56;101028.31;;;18.21;100.00
69306;BME280;56427;51.580;4.656;2023-07-16T06:09:22;101028.63;;;17.95;100.00
69306;BME280;56427;51.580;4.656;2023-07-16T06:11:47;101032.00;;;17.64;100.00
69306;BME280;56427;51.580;4.656;2023-07-16T06:14:13;101029.13;;;18.22;100.00
69306;BME280;56427;51.580;4.656;2023-07-16T06:16:38;101033.72;;;19.12;100.00
69306;BME280;56427;51.580;4.656;2023-07-16T06:19:03;101031.69;;;19.53;100.00
69306;BME280;56427;51.580;4.656;2023-07-16T06:21:29;101034.25;;;19.46;100.00
69306;BME280;56427;51.580;4.656;2023-07-16T06:23:54;101036.66;;;20.07;100.00
69306;BME280;56427;51.580;4.656;2023-07-16T06:26:19;101039.44;;;20.20;100.00
69306;BME280;56427;51.580;4.656;2023-07-16T06:28:45;101040.78;;;20.74;97.64
69306;BME280;56427;51.580;4.656;2023-07-16T06:31:14;101058.88;;;20.41;99.48
69306;BME280;56427;51.580;4.656;2023-07-16T06:33:39;101052.56;;;20.57;99.69
69306;BME280;56427;51.580;4.656;2023-07-16T06:36:05;101062.56;;;20.83;95.69
69306;BME280;56427;51.580;4.656;2023-07-16T06:38:33;101068.69;;;20.90;94.56
69306;BME280;56427;51.580;4.656;2023-07-16T06:40:58;101068.13;;;20.52;97.69
69306;BME280;56427;51.580;4.656;2023-07-16T06:43:24;101068.06;;;21.10;96.50
69306;BME280;56427;51.580;4.656;2023-07-16T06:45:49;101077.75;;;21.31;91.55
69306;BME280;56427;51.580;4.656;2023-07-16T06:48:18;101082.75;;;21.47;93.51
69306;BME280;56427;51.580;4.656;2023-07-16T06:50:44;101097.44;;;21.57;92.96
69306;BME280;56427;51.580;4.656;2023-07-16T06:53:09;101092.19;;;20.27;97.21
69306;BME280;56427;51.580;4.656;2023-07-16T06:55:34;101085.50;;;20.10;100.00
69306;BME280;56427;51.580;4.656;2023-07-16T06:58:00;101087.84;;;20.19;100.00
69306;BME280;56427;51.580;4.656;2023-07-16T07:00:26;101079.44;;;19.94;100.00
69306;BME280;56427;51.580;4.656;2023-07-16T07:02:51;101099.78;;;19.71;100.00
69306;BME280;56427;51.580;4.656;2023-07-16T07:05:17;101087.72;;;19.08;100.00
69306;BME280;56427;51.580;4.656;2023-07-16T07:07:42;101096.00;;;20.76;100.00
69306;BME280;56427;51.580;4.656;2023-07-16T07:10:11;101098.09;;;20.66;99.87
69306;BME280;56427;51.580;4.656;2023-07-16T07:12:36;101097.16;;;20.73;98.97
69306;BME280;56427;51.580;4.656;2023-07-16T07:15:07;101086.69;;;20.22;100.00
69306;BME280;56427;51.580;4.656;2023-07-16T07:17:33;101103.44;;;19.84;100.00
69306;BME280;56427;51.580;4.656;2023-07-16T07:19:59;101103.13;;;19.49;100.00
69306;BME280;56427;51.580;4.656;2023-07-16T07:22:25;101109.91;;;19.44;100.00
69306;BME280;56427;51.580;4.656;2023-07-16T07:24:50;101099.28;;;19.37;100.00
69306;BME280;56427;51.580;4.656;2023-07-16T07:27:15;101102.03;;;19.06;100.00
69306;BME280;56427;51.580;4.656;2023-07-16T07:29:41;101105.66;;;18.82;100.00
69306;BME280;56427;51.580;4.656;2023-07-16T07:32:07;101104.72;;;19.36;100.00
69306;BME280;56427;51.580;4.656;2023-07-16T07:34:32;101112.88;;;19.26;100.00
69306;BME280;56427;51.580;4.656;2023-07-16T07:36:57;101114.59;;;19.19;100.00
69306;BME280;56427;51.580;4.656;2023-07-16T07:39:23;101115.09;;;19.14;100.00
69306;BME280;56427;51.580;4.656;2023-07-16T07:41:48;101121.53;;;19.35;100.00
69306;BME280;56427;51.580;4.656;2023-07-16T07:44:13;101117.16;;;19.42;100.00
69306;BME280;56427;51.580;4.656;2023-07-16T07:46:39;101122.78;;;19.39;100.00
69306;BME280;56427;51.580;4.656;2023-07-16T07:49:04;101108.13;;;19.59;100.00
69306;BME280;56427;51.580;4.656;2023-07-16T07:51:30;101112.84;;;19.49;100.00
69306;BME280;56427;51.580;4.656;2023-07-16T07:53:55;101116.00;;;19.44;100.00
69306;BME280;56427;51.580;4.656;2023-07-16T07:56:20;101117.47;;;19.62;100.00
69306;BME280;56427;51.580;4.656;2023-07-16T07:58:46;101117.97;;;19.04;100.00
69306;BME280;56427;51.580;4.656;2023-07-16T08:01:11;101113.72;;;19.41;100.00
69306;BME280;56427;51.580;4.656;2023-07-16T08:03:37;101141.66;;;19.42;100.00
69306;BME280;56427;51.580;4.656;2023-07-16T08:06:02;101137.66;;;19.99;100.00
69306;BME280;56427;51.580;4.656;2023-07-16T08:08:27;101134.25;;;19.46;100.00
69306;BME280;56427;51.580;4.656;2023-07-16T08:10:54;101129.78;;;19.46;100.00
69306;BME280;56427;51.580;4.656;2023-07-16T08:13:20;101140.94;;;19.86;100.00
69306;BME280;56427;51.580;4.656;2023-07-16T08:15:45;101127.47;;;20.11;100.00
69306;BME280;56427;51.580;4.656;2023-07-16T08:18:10;101143.28;;;20.99;100.00
69306;BME280;56427;51.580;4.656;2023-07-16T08:20:36;101122.06;;;21.64;97.49
69306;BME280;56427;51.580;4.656;2023-07-16T08:23:02;101126.19;;;22.15;94.49
69306;BME280;56427;51.580;4.656;2023-07-16T08:25:27;101140.75;;;21.62;93.98
69306;BME280;56427;51.580;4.656;2023-07-16T08:27:53;101141.72;;;21.55;94.86
69306;BME280;56427;51.580;4.656;2023-07-16T08:30:18;101143.63;;;21.67;95.16
69306;BME280;56427;51.580;4.656;2023-07-16T08:32:44;101145.72;;;21.01;97.59
69306;BME280;56427;51.580;4.656;2023-07-16T08:35:09;101153.53;;;21.09;98.63
69306;BME280;56427;51.580;4.656;2023-07-16T08:37:44;101146.41;;;20.51;100.00
69306;BME280;56427;51.580;4.656;2023-07-16T08:40:10;101155.38;;;20.72;100.00
69306;BME280;56427;51.580;4.656;2023-07-16T08:42:37;101148.31;;;20.72;100.00
69306;BME280;56427;51.580;4.656;2023-07-16T08:45:06;101155.00;;;20.96;100.00
69306;BME280;56427;51.580;4.656;2023-07-16T08:47:31;101163.72;;;20.75;100.00
69306;BME280;56427;51.580;4.656;2023-07-16T08:49:57;101159.34;;;21.04;100.00
69306;BME280;56427;51.580;4.656;2023-07-16T08:52:24;101163.88;;;21.32;100.00
69306;BME280;56427;51.580;4.656;2023-07-16T08:54:54;101166.13;;;21.35;100.00
69306;BME280;56427;51.580;4.656;2023-07-16T08:57:20;101169.34;;;21.09;100.00
69306;BME280;56427;51.580;4.656;2023-07-16T08:59:50;101175.03;;;20.69;100.00
69306;BME280;56427;51.580;4.656;2023-07-16T09:02:20;101176.63;;;20.34;100.00
69306;BME280;56427;51.580;4.656;2023-07-16T09:04:47;101154.28;;;20.00;100.00
69306;BME280;56427;51.580;4.656;2023-07-16T09:07:13;101192.09;;;20.07;100.00
69306;BME280;56427;51.580;4.656;2023-07-16T09:09:38;101178.91;;;19.92;100.00
69306;BME280;56427;51.580;4.656;2023-07-16T09:12:04;101187.94;;;19.75;100.00
69306;BME280;56427;51.580;4.656;2023-07-16T09:14:29;101192.72;;;20.09;100.00
69306;BME280;56427;51.580;4.656;2023-07-16T09:16:55;101182.97;;;19.95;100.00
69306;BME280;56427;51.580;4.656;2023-07-16T09:19:21;101190.16;;;20.01;100.00
69306;BME280;56427;51.580;4.656;2023-07-16T09:21:48;101187.34;;;19.88;100.00
69306;BME280;56427;51.580;4.656;2023-07-16T09:24:14;101185.06;;;20.29;100.00
69306;BME280;56427;51.580;4.656;2023-07-16T09:26:51;101186.72;;;20.15;100.00
69306;BME280;56427;51.580;4.656;2023-07-16T09:29:17;101188.91;;;19.97;100.00
69306;BME280;56427;51.580;4.656;2023-07-16T09:31:56;101195.97;;;20.11;100.00
69306;BME280;56427;51.580;4.656;2023-07-16T09:34:22;101190.72;;;19.96;100.00
69306;BME280;56427;51.580;4.656;2023-07-16T09:36:48;101201.09;;;19.75;100.00
69306;BME280;56427;51.580;4.656;2023-07-16T09:39:17;101195.38;;;19.71;100.00
69306;BME280;56427;51.580;4.656;2023-07-16T09:41:48;101211.16;;;19.56;100.00
69306;BME280;56427;51.580;4.656;2023-07-16T09:44:14;101226.78;;;19.35;100.00
69306;BME280;56427;51.580;4.656;2023-07-16T09:46:40;101210.38;;;19.33;100.00
69306;BME280;56427;51.580;4.656;2023-07-16T09:49:07;101223.06;;;19.44;100.00
69306;BME280;56427;51.580;4.656;2023-07-16T09:51:35;101221.28;;;19.44;100.00
69306;BME280;56427;51.580;4.656;2023-07-16T09:54:01;101227.81;;;19.48;100.00
69306;BME280;56427;51.580;4.656;2023-07-16T09:56:39;101232.06;;;19.35;100.00
69306;BME280;56427;51.580;4.656;2023-07-16T09:59:08;101239.16;;;19.26;100.00
69306;BME280;56427;51.580;4.656;2023-07-16T10:01:36;101248.91;;;18.94;100.00
69306;BME280;56427;51.580;4.656;2023-07-16T10:04:17;101255.84;;;18.87;100.00
69306;BME280;56427;51.580;4.656;2023-07-16T10:06:53;101269.16;;;19.17;100.00
69306;BME280;56427;51.580;4.656;2023-07-16T10:09:39;101259.16;;;19.12;100.00
69306;BME280;56427;51.580;4.656;2023-07-16T10:12:10;101264.94;;;19.07;100.00
69306;BME280;56427;51.580;4.656;2023-07-16T10:14:40;101254.31;;;19.24;100.00
69306;BME280;56427;51.580;4.656;2023-07-16T10:17:06;101261.84;;;19.73;100.00
69306;BME280;56427;51.580;4.656;2023-07-16T10:19:45;101270.56;;;19.27;100.00
69306;BME280;56427;51.580;4.656;2023-07-16T10:22:10;101267.75;;;19.52;100.00
69306;BME280;56427;51.580;4.656;2023-07-16T10:24:38;101290.63;;;19.75;100.00
69306;BME280;56427;51.580;4.656;2023-07-16T10:27:04;101293.78;;;19.93;100.00
69306;BME280;56427;51.580;4.656;2023-07-16T10:29:29;101296.75;;;19.75;100.00
69306;BME280;56427;51.580;4.656;2023-07-16T10:31:56;101290.88;;;19.88;100.00
69306;BME280;56427;51.580;4.656;2023-07-16T10:34:22;101303.75;;;19.60;100.00
69306;BME280;56427;51.580;4.656;2023-07-16T10:36:49;101282.22;;;19.56;100.00
69306;BME280;56427;51.580;4.656;2023-07-16T10:39:15;101297.44;;;19.46;100.00
69306;BME280;56427;51.580;4.656;2023-07-16T10:41:41;101305.84;;;19.18;100.00
69306;BME280;56427;51.580;4.656;2023-07-16T10:44:13;101307.56;;;19.26;100.00
69306;BME280;56427;51.580;4.656;2023-07-16T10:46:41;101315.75;;;19.39;100.00
69306;BME280;56427;51.580;4.656;2023-07-16T10:49:07;101320.00;;;19.40;100.00
69306;BME280;56427;51.580;4.656;2023-07-16T10:51:33;101330.13;;;18.89;100.00
69306;BME280;56427;51.580;4.656;2023-07-16T10:53:59;101345.03;;;18.41;100.00
69306;BME280;56427;51.580;4.656;2023-07-16T10:56:25;101338.47;;;18.20;100.00
69306;BME280;56427;51.580;4.656;2023-07-16T10:58:50;101336.50;;;18.22;100.00
69306;BME280;56427;51.580;4.656;2023-07-16T11:01:16;101328.38;;;18.56;100.00
69306;BME280;56427;51.580;4.656;2023-07-16T11:03:42;101343.47;;;18.71;100.00
69306;BME280;56427;51.580;4.656;2023-07-16T11:06:10;101336.75;;;19.71;100.00
69306;BME280;56427;51.580;4.656;2023-07-16T11:08:37;101327.47;;;19.83;100.00
69306;BME280;56427;51.580;4.656;2023-07-16T11:11:02;101326.09;;;20.10;100.00
69306;BME280;56427;51.580;4.656;2023-07-16T11:13:31;101323.28;;;20.12;100.00
69306;BME280;56427;51.580;4.656;2023-07-16T11:15:57;101320.91;;;20.70;100.00
69306;BME280;56427;51.580;4.656;2023-07-16T11:18:23;101294.19;;;21.09;100.00
69306;BME280;56427;51.580;4.656;2023-07-16T11:20:52;101312.09;;;21.72;100.00
69306;BME280;56427;51.580;4.656;2023-07-16T11:23:18;101313.38;;;21.55;100.00
69306;BME280;56427;51.580;4.656;2023-07-16T11:25:49;101309.75;;;21.41;100.00
69306;BME280;56427;51.580;4.656;2023-07-16T11:28:15;101327.88;;;21.07;100.00
69306;BME280;56427;51.580;4.656;2023-07-16T11:30:40;101309.06;;;21.32;100.00
69306;BME280;56427;51.580;4.656;2023-07-16T11:33:13;101310.69;;;20.82;100.00
69306;BME280;56427;51.580;4.656;2023-07-16T11:35:39;101310.56;;;21.41;100.00
69306;BME280;56427;51.580;4.656;2023-07-16T11:38:05;101313.75;;;21.52;100.00
69306;BME280;56427;51.580;4.656;2023-07-16T11:40:34;101308.19;;;21.46;100.00
69306;BME280;56427;51.580;4.656;2023-07-16T11:43:08;101307.56;;;21.87;100.00
69306;BME280;56427;51.580;4.656;2023-07-16T11:45:35;101307.22;;;22.54;98.92
69306;BME280;56427;51.580;4.656;2023-07-16T11:48:01;101300.75;;;22.63;99.16
69306;BME280;56427;51.580;4.656;2023-07-16T11:50:28;101305.69;;;23.34;94.64
69306;BME280;56427;51.580;4.656;2023-07-16T11:53:00;101313.41;;;23.16;92.72
69306;BME280;56427;51.580;4.656;2023-07-16T11:55:37;101311.13;;;22.65;93.77
69306;BME280;56427;51.580;4.656;2023-07-16T11:58:03;101333.97;;;22.37;95.24
69306;BME280;56427;51.580;4.656;2023-07-16T12:00:28;101318.97;;;22.45;92.23
69306;BME280;56427;51.580;4.656;2023-07-16T12:02:54;101307.16;;;22.82;91.59
69306;BME280;56427;51.580;4.656;2023-07-16T12:05:21;101325.22;;;23.20;91.41
69306;BME280;56427;51.580;4.656;2023-07-16T12:07:46;101322.03;;;22.20;94.59
69306;BME280;56427;51.580;4.656;2023-07-16T12:10:12;101311.16;;;22.08;94.17
69306;BME280;56427;51.580;4.656;2023-07-16T12:12:37;101318.34;;;22.42;94.65
69306;BME280;56427;51.580;4.656;2023-07-16T12:15:04;101311.66;;;22.88;90.64
69306;BME280;56427;51.580;4.656;2023-07-16T12:17:30;101300.50;;;22.58;90.14
69306;BME280;56427;51.580;4.656;2023-07-16T12:19:55;101314.13;;;22.27;88.71
69306;BME280;56427;51.580;4.656;2023-07-16T12:22:21;101305.44;;;22.68;90.30
69306;BME280;56427;51.580;4.656;2023-07-16T12:24:46;101310.38;;;22.36;88.05
69306;BME280;56427;51.580;4.656;2023-07-16T12:27:12;101299.94;;;22.63;86.55
69306;BME280;56427;51.580;4.656;2023-07-16T12:29:37;101302.59;;;23.11;86.73
69306;BME280;56427;51.580;4.656;2023-07-16T12:32:03;101303.69;;;23.70;83.92
69306;BME280;56427;51.580;4.656;2023-07-16T12:34:28;101310.94;;;22.31;84.65
69306;BME280;56427;51.580;4.656;2023-07-16T12:36:53;101307.16;;;22.40;86.04
69306;BME280;56427;51.580;4.656;2023-07-16T12:39:21;101304.69;;;22.81;86.38
69306;BME280;56427;51.580;4.656;2023-07-16T12:41:49;101302.94;;;22.53;86.48
69306;BME280;56427;51.580;4.656;2023-07-16T12:44:14;101315.78;;;22.56;84.39